Time;durP1;ratioP1;P1;durP2;ratioP2;P2;SDS_P1;SDS_P2;PMS_P1;PMS_P2;Temp;Humidity;BMP_temperature;BMP_pressure;BME280_temperature;BME280_humidity;BME280_pressure;Samples;Min_cycle;Max_cycle;Signal;HPM_P1;HPM_P2
2022/09/06 00:00:25;;;;;;;;;8.75;8.50;;;;;-144.76;100.00;60493.00;5093715;28;45035;-82
2022/09/06 00:02:50;;;;;;;;;9.75;9.50;;;;;-144.76;100.00;60493.00;5093951;27;44949;-82
2022/09/06 00:05:16;;;;;;;;;9.25;8.50;;;;;-144.76;100.00;60493.00;5093830;27;45025;-82
2022/09/06 00:07:41;;;;;;;;;12.25;10.00;;;;;-144.76;100.00;60493.00;5094017;27;45648;-82
2022/09/06 00:10:07;;;;;;;;;10.00;9.00;;;;;-144.76;100.00;60493.00;5093354;27;44984;-82
2022/09/06 00:12:33;;;;;;;;;10.00;9.75;;;;;-144.76;100.00;60493.00;5093328;28;44905;-82
2022/09/06 00:14:59;;;;;;;;;8.00;8.00;;;;;-144.76;100.00;60493.00;5093738;27;45004;-82
2022/09/06 00:17:24;;;;;;;;;9.25;9.25;;;;;-144.76;100.00;60493.00;5107651;27;46260;-82
2022/09/06 00:19:49;;;;;;;;;7.25;6.75;;;;;-144.76;100.00;60493.00;5093085;27;50609;-82
2022/09/06 00:22:15;;;;;;;;;9.00;8.50;;;;;-144.76;100.00;60493.00;5092475;27;45150;-82
2022/09/06 00:24:40;;;;;;;;;9.25;9.00;;;;;-144.76;100.00;60493.00;5093830;27;45161;-82
2022/09/06 00:27:07;;;;;;;;;9.50;9.00;;;;;-144.76;100.00;60493.00;5092821;27;45099;-82
2022/09/06 00:29:33;;;;;;;;;9.75;9.75;;;;;-144.76;100.00;60493.00;5093271;27;45566;-82
2022/09/06 00:31:58;;;;;;;;;7.25;6.50;;;;;-144.76;100.00;60493.00;5093236;27;44993;-82
2022/09/06 00:34:24;;;;;;;;;9.25;9.25;;;;;-144.76;100.00;60493.00;5093571;27;45215;-82
2022/09/06 00:36:50;;;;;;;;;9.00;8.00;;;;;-144.76;100.00;60493.00;5093054;27;45053;-82
2022/09/06 00:39:15;;;;;;;;;9.50;7.00;;;;;-144.76;100.00;60493.00;5092886;27;44879;-82
2022/09/06 00:41:40;;;;;;;;;8.00;7.75;;;;;-144.76;100.00;60493.00;5092905;27;44953;-81
2022/09/06 00:44:06;;;;;;;;;9.00;8.25;;;;;-144.76;100.00;60493.00;5093121;27;45038;-81
2022/09/06 00:46:32;;;;;;;;;7.00;6.75;;;;;-144.76;100.00;60493.00;5093207;27;58153;-82
2022/09/06 00:49:03;;;;;;;;;8.00;7.00;;;;;-144.76;100.00;60493.00;5093398;27;45582;-82
2022/09/06 00:51:30;;;;;;;;;8.00;8.00;;;;;-144.76;100.00;60493.00;5093322;27;44899;-81
2022/09/06 00:53:56;;;;;;;;;7.00;7.00;;;;;-144.76;100.00;60493.00;5093156;27;45269;-82
2022/09/06 00:56:22;;;;;;;;;10.00;9.25;;;;;-144.76;100.00;60493.00;5092068;27;45642;-82
2022/09/06 00:58:48;;;;;;;;;7.25;6.50;;;;;-144.76;100.00;60493.00;5108707;27;45422;-81
2022/09/06 01:01:14;;;;;;;;;8.75;8.00;;;;;-144.76;100.00;60493.00;5093044;28;45146;-81
2022/09/06 01:03:39;;;;;;;;;9.00;9.00;;;;;-144.76;100.00;60493.00;5092288;27;45028;-81
2022/09/06 01:06:13;;;;;;;;;9.75;9.00;;;;;-144.76;100.00;60493.00;5092400;27;45544;-81
2022/09/06 01:09:06;;;;;;;;;9.00;8.50;;;;;-144.76;100.00;60493.00;5092147;27;45654;-81
2022/09/06 01:11:53;;;;;;;;;7.50;7.50;;;;;-144.76;100.00;60493.00;5092661;28;45172;-82
2022/09/06 01:14:33;;;;;;;;;7.50;7.25;;;;;-144.76;100.00;60493.00;5093184;28;45209;-81
2022/09/06 01:17:27;;;;;;;;;8.00;6.75;;;;;-144.76;100.00;60493.00;5092459;27;45649;-81
2022/09/06 01:20:17;;;;;;;;;10.00;9.00;;;;;-144.76;100.00;60493.00;5092567;27;45545;-81
2022/09/06 01:23:03;;;;;;;;;8.25;7.25;;;;;-144.76;100.00;60493.00;5092761;27;44906;-82
2022/09/06 01:25:47;;;;;;;;;8.00;8.00;;;;;-144.76;100.00;60493.00;5091787;27;45084;-82
2022/09/06 01:28:33;;;;;;;;;7.50;6.75;;;;;-144.76;100.00;60493.00;5092906;27;45019;-81
2022/09/06 01:31:15;;;;;;;;;7.50;7.25;;;;;-144.76;100.00;60493.00;5092391;27;45399;-82
2022/09/06 01:34:06;;;;;;;;;8.00;6.75;;;;;-144.76;100.00;60493.00;5092270;27;44938;-82
2022/09/06 01:36:55;;;;;;;;;7.50;7.50;;;;;-144.76;100.00;60493.00;5091155;27;45158;-82
2022/09/06 01:39:21;;;;;;;;;8.25;7.50;;;;;-144.76;100.00;60493.00;5091504;27;45743;-82
2022/09/06 01:41:46;;;;;;;;;7.00;7.00;;;;;-144.76;100.00;60493.00;5090623;27;45053;-81
2022/09/06 01:44:12;;;;;;;;;7.00;6.00;;;;;-144.76;100.00;60493.00;5090631;28;44591;-82
2022/09/06 01:46:50;;;;;;;;;4.00;4.00;;;;;-144.76;100.00;60493.00;5092343;27;44929;-82
2022/09/06 01:49:30;;;;;;;;;7.50;7.50;;;;;-144.76;100.00;60493.00;5091748;27;45019;-82
2022/09/06 01:52:08;;;;;;;;;4.75;4.75;;;;;-144.76;100.00;60493.00;5092141;28;45174;-82
2022/09/06 01:54:45;;;;;;;;;7.75;7.00;;;;;-144.76;100.00;60493.00;5092589;27;45355;-82
2022/09/06 01:57:22;;;;;;;;;6.50;6.25;;;;;-144.76;100.00;60493.00;5092275;27;45189;-82
2022/09/06 02:00:09;;;;;;;;;7.75;7.50;;;;;-144.76;100.00;60493.00;5092105;27;45908;-82
2022/09/06 02:02:41;;;;;;;;;11.50;10.00;;;;;-144.76;100.00;60493.00;5092002;27;45452;-82
2022/09/06 02:05:36;;;;;;;;;7.25;6.50;;;;;-144.76;100.00;60493.00;5092249;27;45169;-82
2022/09/06 02:08:14;;;;;;;;;8.00;7.75;;;;;-144.76;100.00;60493.00;5091797;27;44900;-82
2022/09/06 02:10:48;;;;;;;;;8.75;8.25;;;;;-144.76;100.00;60493.00;5090882;27;45354;-82
2022/09/06 02:13:15;;;;;;;;;9.00;9.00;;;;;-144.76;100.00;60493.00;5107409;27;45510;-82
2022/09/06 02:15:50;;;;;;;;;9.50;9.00;;;;;-144.76;100.00;60493.00;5091535;27;44984;-82
2022/09/06 02:18:21;;;;;;;;;10.75;9.00;;;;;-144.76;100.00;60493.00;5092004;27;44937;-82
2022/09/06 02:20:52;;;;;;;;;7.75;7.75;;;;;-144.76;100.00;60493.00;5092059;27;45572;-82
2022/09/06 02:23:22;;;;;;;;;9.00;8.00;;;;;-144.76;100.00;60493.00;5091303;27;45543;-82
2022/09/06 02:25:56;;;;;;;;;8.75;8.75;;;;;-144.76;100.00;60493.00;5091256;27;45230;-82
2022/09/06 02:28:23;;;;;;;;;10.00;8.25;;;;;-144.76;100.00;60493.00;5092287;27;45303;-82
2022/09/06 02:30:52;;;;;;;;;10.75;10.50;;;;;-144.76;100.00;60493.00;5091198;27;45098;-82
2022/09/06 02:33:20;;;;;;;;;8.75;8.50;;;;;-144.76;100.00;60493.00;5091948;27;45371;-82
2022/09/06 02:35:48;;;;;;;;;7.00;7.00;;;;;-144.76;100.00;60493.00;5107390;27;45217;-82
2022/09/06 02:38:15;;;;;;;;;9.75;9.75;;;;;-144.76;100.00;60493.00;5091375;27;44889;-82
2022/09/06 02:40:42;;;;;;;;;10.00;8.75;;;;;-144.76;100.00;60493.00;5091171;27;46159;-82
2022/09/06 02:43:07;;;;;;;;;10.50;9.75;;;;;-144.76;100.00;60493.00;5091483;28;45407;-82
2022/09/06 02:45:33;;;;;;;;;7.00;6.50;;;;;-144.76;100.00;60493.00;5091893;27;45065;-82
2022/09/06 02:47:58;;;;;;;;;7.75;7.75;;;;;-144.76;100.00;60493.00;5095698;27;45342;-82
2022/09/06 02:50:23;;;;;;;;;7.75;7.00;;;;;-144.76;100.00;60493.00;5094733;27;45027;-82
2022/09/06 02:53:08;;;;;;;;;8.00;8.00;;;;;-144.76;100.00;60493.00;5094818;28;44964;-81
2022/09/06 02:55:34;;;;;;;;;9.50;9.25;;;;;-144.76;100.00;60493.00;5094204;27;45075;-81
2022/09/06 02:58:00;;;;;;;;;9.75;9.75;;;;;-144.76;100.00;60493.00;5095046;27;45146;-81
2022/09/06 03:00:26;;;;;;;;;9.25;9.00;;;;;-144.76;100.00;60493.00;5093535;28;46563;-81
2022/09/06 03:02:51;;;;;;;;;10.75;10.75;;;;;-144.76;100.00;60493.00;5095123;27;44959;-81
2022/09/06 03:05:17;;;;;;;;;9.25;8.75;;;;;-144.76;100.00;60493.00;5110521;27;45270;-81
2022/09/06 03:07:42;;;;;;;;;11.00;9.50;;;;;-144.76;100.00;60493.00;5094613;28;45257;-81
2022/09/06 03:10:08;;;;;;;;;9.75;9.50;;;;;-144.76;100.00;60493.00;5094261;27;45716;-82
2022/09/06 03:12:33;;;;;;;;;12.00;11.00;;;;;-144.76;100.00;60493.00;5093828;27;44972;-82
2022/09/06 03:14:59;;;;;;;;;9.00;8.75;;;;;-144.76;100.00;60493.00;5094345;27;56966;-81
2022/09/06 03:17:24;;;;;;;;;10.33;10.33;;;;;-144.76;100.00;60493.00;5094305;28;45088;-82
2022/09/06 03:19:49;;;;;;;;;12.67;12.00;;;;;-144.76;100.00;60493.00;5094021;28;56132;-82
2022/09/06 03:22:15;;;;;;;;;9.33;9.33;;;;;-144.76;100.00;60493.00;5093792;28;53660;-81
2022/09/06 03:24:40;;;;;;;;;8.00;8.00;;;;;-144.76;100.00;60493.00;5094669;27;45005;-81
2022/09/06 03:27:05;;;;;;;;;7.00;7.00;;;;;-144.76;100.00;60493.00;5094589;27;45194;-81
2022/09/06 03:29:31;;;;;;;;;10.75;10.25;;;;;-144.76;100.00;60493.00;5094579;27;45489;-81
2022/09/06 03:31:56;;;;;;;;;10.00;10.00;;;;;-144.76;100.00;60493.00;5110098;27;45487;-81
2022/09/06 03:34:21;;;;;;;;;10.00;9.50;;;;;-144.76;100.00;60493.00;5094369;27;45058;-82
2022/09/06 03:36:47;;;;;;;;;9.00;9.00;;;;;-144.76;100.00;60493.00;5094407;27;44932;-81
2022/09/06 03:39:12;;;;;;;;;8.75;8.00;;;;;-144.76;100.00;60493.00;5093714;27;45573;-81
2022/09/06 03:41:37;;;;;;;;;14.67;14.67;;;;;-144.76;100.00;60493.00;5093499;28;55304;-81
2022/09/06 03:44:03;;;;;;;;;9.67;8.00;;;;;-144.76;100.00;60493.00;5094476;28;45106;-82
2022/09/06 03:46:29;;;;;;;;;11.25;9.50;;;;;-144.76;100.00;60493.00;5094344;27;45101;-82
2022/09/06 03:48:58;;;;;;;;;8.50;7.25;;;;;-144.76;100.00;60493.00;5094247;28;45753;-81
2022/09/06 03:51:23;;;;;;;;;10.25;8.75;;;;;-144.76;100.00;60493.00;5094256;28;45623;-81
2022/09/06 03:53:49;;;;;;;;;9.75;9.00;;;;;-144.76;100.00;60493.00;5094005;28;44921;-81
2022/09/06 03:56:14;;;;;;;;;10.25;9.25;;;;;-144.76;100.00;60493.00;5093960;27;45168;-81
2022/09/06 03:58:39;;;;;;;;;10.25;10.00;;;;;-144.76;100.00;60493.00;5092272;28;51686;-81
2022/09/06 04:01:10;;;;;;;;;14.00;12.75;;;;;-144.76;100.00;60493.00;5093956;27;46215;-81
2022/09/06 04:03:37;;;;;;;;;13.50;12.00;;;;;-144.76;100.00;60493.00;5093866;27;44998;-81
2022/09/06 04:06:04;;;;;;;;;13.00;12.00;;;;;-144.76;100.00;60493.00;5094123;28;44985;-81
2022/09/06 04:08:30;;;;;;;;;10.75;10.25;;;;;-144.76;100.00;60493.00;5093361;27;47154;-82
2022/09/06 04:10:56;;;;;;;;;11.75;10.50;;;;;-144.76;100.00;60493.00;5093435;28;45442;-82
2022/09/06 04:13:23;;;;;;;;;9.75;9.25;;;;;-144.76;100.00;60493.00;5093627;27;44956;-81
2022/09/06 04:15:48;;;;;;;;;9.75;9.75;;;;;-144.76;100.00;60493.00;5093553;27;45087;-81
2022/09/06 04:18:15;;;;;;;;;11.75;11.75;;;;;-144.76;100.00;60493.00;5093263;28;45211;-81
2022/09/06 04:20:40;;;;;;;;;10.00;9.25;;;;;-144.76;100.00;60493.00;5093564;27;45298;-81
2022/09/06 04:23:06;;;;;;;;;10.00;10.00;;;;;-144.76;100.00;60493.00;5094119;27;45005;-81
2022/09/06 04:25:32;;;;;;;;;8.50;8.50;;;;;-144.76;100.00;60493.00;5093153;28;45258;-81
2022/09/06 04:27:57;;;;;;;;;10.00;9.00;;;;;-144.76;100.00;60493.00;5093057;27;45685;-81
2022/09/06 04:30:22;;;;;;;;;10.00;10.00;;;;;-144.76;100.00;60493.00;5093165;27;45003;-81
2022/09/06 04:32:48;;;;;;;;;9.50;9.50;;;;;-144.76;100.00;60493.00;5093612;28;45481;-81
2022/09/06 04:35:13;;;;;;;;;12.25;11.00;;;;;-144.76;100.00;60493.00;5093357;27;44929;-81
2022/09/06 04:37:38;;;;;;;;;12.67;12.33;;;;;-144.76;100.00;60493.00;5093197;28;51147;-81
2022/09/06 04:40:04;;;;;;;;;11.75;10.75;;;;;-144.76;100.00;60493.00;5092738;28;44856;-81
2022/09/06 04:42:30;;;;;;;;;9.25;9.25;;;;;-144.76;100.00;60493.00;5090997;28;45124;-81
2022/09/06 04:44:55;;;;;;;;;10.50;9.00;;;;;-144.76;100.00;60493.00;5093598;27;44906;-81
2022/09/06 04:47:20;;;;;;;;;11.25;10.00;;;;;-144.76;100.00;60493.00;5093368;27;44969;-81
2022/09/06 04:49:48;;;;;;;;;7.50;7.50;;;;;-144.76;100.00;60493.00;5093129;27;45082;-81
2022/09/06 04:52:13;;;;;;;;;10.50;10.50;;;;;-144.76;100.00;60493.00;5093109;27;44991;-81
2022/09/06 04:54:39;;;;;;;;;11.50;10.00;;;;;-144.76;100.00;60493.00;5092859;27;45115;-81
2022/09/06 04:57:04;;;;;;;;;8.00;8.00;;;;;-144.76;100.00;60493.00;5092734;27;45009;-81
2022/09/06 04:59:29;;;;;;;;;9.25;9.00;;;;;-144.76;100.00;60493.00;5093622;28;44983;-82
2022/09/06 05:01:55;;;;;;;;;13.25;10.50;;;;;-144.76;100.00;60493.00;5092958;27;44920;-81
2022/09/06 05:04:20;;;;;;;;;9.00;8.75;;;;;-144.76;100.00;60493.00;5093214;27;45094;-83
2022/09/06 05:06:46;;;;;;;;;13.25;12.75;;;;;-144.76;100.00;60493.00;5093189;27;45029;-82
2022/09/06 05:09:11;;;;;;;;;14.50;14.50;;;;;-144.76;100.00;60493.00;5092118;27;45143;-81
2022/09/06 05:11:36;;;;;;;;;15.50;13.75;;;;;-144.76;100.00;60493.00;5092874;28;45001;-81
2022/09/06 05:14:02;;;;;;;;;14.00;13.67;;;;;-144.76;100.00;60493.00;5092458;28;54113;-82
2022/09/06 05:16:27;;;;;;;;;12.00;12.00;;;;;-144.76;100.00;60493.00;5092427;27;45142;-81
2022/09/06 05:18:52;;;;;;;;;13.00;13.00;;;;;-144.76;100.00;60493.00;5092767;27;46283;-81
2022/09/06 05:21:18;;;;;;;;;8.25;8.25;;;;;-144.76;100.00;60493.00;5090985;28;45013;-82
2022/09/06 05:23:43;;;;;;;;;11.25;11.00;;;;;-144.76;100.00;60493.00;5092769;27;45207;-81
2022/09/06 05:26:09;;;;;;;;;12.25;10.50;;;;;-144.76;100.00;60493.00;5092125;27;45561;-81
2022/09/06 05:28:34;;;;;;;;;7.75;7.75;;;;;-144.76;100.00;60493.00;5092509;27;45104;-81
2022/09/06 05:31:06;;;;;;;;;10.00;9.00;;;;;-144.76;100.00;60493.00;5092154;27;49395;-81
2022/09/06 05:33:32;;;;;;;;;9.50;9.50;;;;;-144.76;100.00;60493.00;5092650;28;45130;-82
2022/09/06 05:35:58;;;;;;;;;8.00;8.00;;;;;-144.76;100.00;60493.00;5092347;27;45186;-82
2022/09/06 05:38:24;;;;;;;;;10.25;9.50;;;;;-144.76;100.00;60493.00;5091872;27;45162;-82
2022/09/06 05:40:49;;;;;;;;;9.25;8.75;;;;;-144.76;100.00;60493.00;5091912;27;45122;-81
2022/09/06 05:43:14;;;;;;;;;9.25;9.00;;;;;-144.76;100.00;60493.00;5092271;27;44908;-82
2022/09/06 05:45:40;;;;;;;;;11.25;10.75;;;;;-144.76;100.00;60493.00;5092160;27;45761;-82
2022/09/06 05:48:05;;;;;;;;;14.50;13.50;;;;;-144.76;100.00;60493.00;5092483;27;44947;-82
2022/09/06 05:50:30;;;;;;;;;12.75;12.25;;;;;-144.76;100.00;60493.00;5092885;27;45210;-82
2022/09/06 05:52:56;;;;;;;;;17.00;17.00;;;;;-144.76;100.00;60493.00;5107903;27;45396;-82
2022/09/06 05:55:21;;;;;;;;;19.75;16.00;;;;;-144.76;100.00;60493.00;5091087;28;45636;-82
2022/09/06 05:57:46;;;;;;;;;16.00;14.33;;;;;-144.76;100.00;60493.00;5091740;27;52669;-81
2022/09/06 06:00:12;;;;;;;;;15.33;15.00;;;;;-144.76;100.00;60493.00;5091864;28;48925;-82
2022/09/06 06:02:38;;;;;;;;;11.75;11.25;;;;;-144.76;100.00;60493.00;5092523;27;45109;-81
2022/09/06 06:05:04;;;;;;;;;12.50;12.25;;;;;-144.76;100.00;60493.00;5091620;28;45563;-82
2022/09/06 06:07:30;;;;;;;;;11.50;10.25;;;;;-144.76;100.00;60493.00;5091644;27;45952;-82
2022/09/06 06:09:55;;;;;;;;;11.75;11.50;;;;;-144.76;100.00;60493.00;5091646;27;44997;-82
2022/09/06 06:12:20;;;;;;;;;13.25;13.00;;;;;-144.76;100.00;60493.00;5090910;27;45183;-82
2022/09/06 06:14:46;;;;;;;;;9.67;9.67;;;;;-144.76;100.00;60493.00;5091160;27;61293;-82
2022/09/06 06:17:11;;;;;;;;;12.00;12.00;;;;;-144.76;100.00;60493.00;5107007;27;55883;-82
2022/09/06 06:19:36;;;;;;;;;14.00;14.00;;;;;-144.76;100.00;60493.00;5091221;28;52830;-81
2022/09/06 06:22:01;;;;;;;;;13.00;12.00;;;;;-144.76;100.00;60493.00;5091122;27;45101;-82
2022/09/06 06:24:27;;;;;;;;;13.25;13.25;;;;;-144.76;100.00;60493.00;5091653;27;45148;-81
2022/09/06 06:26:52;;;;;;;;;13.75;12.75;;;;;-144.76;100.00;60493.00;5091231;27;45116;-82
2022/09/06 06:29:18;;;;;;;;;13.00;13.00;;;;;-144.76;100.00;60493.00;5091208;27;44940;-81
2022/09/06 06:31:43;;;;;;;;;12.00;12.00;;;;;-144.76;100.00;60493.00;5107548;27;45012;-81
2022/09/06 06:34:09;;;;;;;;;14.50;14.50;;;;;-144.76;100.00;60493.00;5091581;27;45054;-82
2022/09/06 06:36:35;;;;;;;;;13.75;13.00;;;;;-144.76;100.00;60493.00;5091747;27;45113;-82
2022/09/06 06:39:04;;;;;;;;;13.75;12.75;;;;;-144.76;100.00;60493.00;5091223;27;45000;-82
2022/09/06 06:41:31;;;;;;;;;16.75;16.50;;;;;-144.76;100.00;60493.00;5091649;28;45084;-82
2022/09/06 06:43:58;;;;;;;;;15.75;14.75;;;;;-144.76;100.00;60493.00;5091136;27;45256;-82
2022/09/06 06:46:27;;;;;;;;;11.25;11.00;;;;;-144.76;100.00;60493.00;5091465;27;45155;-82
2022/09/06 06:48:54;;;;;;;;;14.00;13.25;;;;;-144.76;100.00;60493.00;5091149;27;45103;-82
2022/09/06 06:51:21;;;;;;;;;16.25;16.00;;;;;-144.76;100.00;60493.00;5091258;27;45024;-81
2022/09/06 06:53:47;;;;;;;;;21.00;19.00;;;;;-144.76;100.00;60493.00;5090523;27;45480;-82
2022/09/06 06:56:17;;;;;;;;;17.25;15.75;;;;;-144.76;100.00;60493.00;5088977;27;45199;-82
2022/09/06 06:58:43;;;;;;;;;14.25;13.50;;;;;-144.76;100.00;60493.00;5091440;27;44984;-82
2022/09/06 07:01:09;;;;;;;;;11.50;11.25;;;;;-144.76;100.00;60493.00;5091145;28;45064;-82
2022/09/06 07:03:35;;;;;;;;;15.00;12.50;;;;;-144.76;100.00;60493.00;5091418;27;45491;-82
2022/09/06 07:06:01;;;;;;;;;15.50;13.25;;;;;-144.76;100.00;60493.00;5091413;27;45177;-81
2022/09/06 07:08:27;;;;;;;;;14.25;13.75;;;;;-144.76;100.00;60493.00;5090696;28;45066;-82
2022/09/06 07:10:52;;;;;;;;;13.75;12.00;;;;;-144.76;100.00;60493.00;5090875;27;44881;-82
2022/09/06 07:13:18;;;;;;;;;15.00;14.75;;;;;-144.76;100.00;60493.00;5091555;27;45620;-82
2022/09/06 07:15:43;;;;;;;;;17.00;17.00;;;;;-144.76;100.00;60493.00;5090549;27;45074;-82
2022/09/06 07:18:09;;;;;;;;;14.67;14.67;;;;;-144.76;100.00;60493.00;5090782;28;54342;-80
2022/09/06 07:20:34;;;;;;;;;15.00;14.50;;;;;-144.76;100.00;60493.00;5090823;28;44910;-82
2022/09/06 07:23:03;;;;;;;;;14.50;14.00;;;;;-144.76;100.00;60493.00;5090558;27;45415;-82
2022/09/06 07:25:29;;;;;;;;;16.00;14.75;;;;;-144.76;100.00;60493.00;5090457;27;45557;-82
2022/09/06 07:28:07;;;;;;;;;14.50;14.25;;;;;-144.76;100.00;60493.00;5090948;27;54394;-82
2022/09/06 07:30:35;;;;;;;;;14.50;13.75;;;;;-144.76;100.00;60493.00;5091257;27;45370;-82
2022/09/06 07:33:01;;;;;;;;;13.75;13.25;;;;;-144.76;100.00;60493.00;5093416;27;45237;-82
2022/09/06 07:35:27;;;;;;;;;13.25;13.00;;;;;-144.76;100.00;60493.00;5094439;27;45164;-82
2022/09/06 07:37:53;;;;;;;;;12.50;12.25;;;;;-144.76;100.00;60493.00;5093566;28;46393;-81
2022/09/06 07:40:18;;;;;;;;;16.00;14.50;;;;;-144.76;100.00;60493.00;5109376;27;45113;-82
2022/09/06 07:42:44;;;;;;;;;28.00;26.25;;;;;-144.76;100.00;60493.00;5094257;27;45503;-81
2022/09/06 07:45:09;;;;;;;;;14.75;13.75;;;;;-144.76;100.00;60493.00;5094098;27;45550;-82
2022/09/06 07:47:35;;;;;;;;;15.50;14.75;;;;;-144.76;100.00;60493.00;5093903;28;45001;-81
2022/09/06 07:50:00;;;;;;;;;13.50;13.50;;;;;-144.76;100.00;60493.00;5094247;27;45325;-81
2022/09/06 07:52:26;;;;;;;;;15.75;14.50;;;;;-144.76;100.00;60493.00;5093700;27;45003;-82
2022/09/06 07:54:52;;;;;;;;;13.00;12.50;;;;;-144.76;100.00;60493.00;5109354;27;45119;-82
2022/09/06 07:57:17;;;;;;;;;15.25;15.00;;;;;-144.76;100.00;60493.00;5093894;27;45122;-82
2022/09/06 07:59:43;;;;;;;;;8.75;8.75;;;;;-144.76;100.00;60493.00;5094216;27;45019;-83
2022/09/06 08:02:08;;;;;;;;;11.33;10.00;;;;;-144.76;100.00;60493.00;5109277;27;52158;-82
2022/09/06 08:04:33;;;;;;;;;10.25;10.00;;;;;-144.76;100.00;60493.00;5093834;27;45752;-82
2022/09/06 08:07:01;;;;;;;;;10.50;10.00;;;;;-144.76;100.00;60493.00;5094042;27;45066;-82
2022/09/06 08:09:26;;;;;;;;;8.25;8.00;;;;;-144.76;100.00;60493.00;5093867;27;44862;-82
2022/09/06 08:11:52;;;;;;;;;10.00;9.25;;;;;-144.76;100.00;60493.00;5091415;28;45500;-82
2022/09/06 08:14:17;;;;;;;;;8.75;8.75;;;;;-144.76;100.00;60493.00;5093723;27;44894;-82
2022/09/06 08:16:42;;;;;;;;;7.75;7.75;;;;;-144.76;100.00;60493.00;5093925;27;44988;-82
2022/09/06 08:19:08;;;;;;;;;9.00;8.00;;;;;-144.76;100.00;60493.00;5094123;27;45073;-82
2022/09/06 08:21:33;;;;;;;;;9.00;8.25;;;;;-144.76;100.00;60493.00;5093760;27;45796;-82
2022/09/06 08:24:01;;;;;;;;;5.25;5.25;;;;;-144.76;100.00;60493.00;5094005;27;45028;-82
2022/09/06 08:26:28;;;;;;;;;5.00;5.00;;;;;-144.76;100.00;60493.00;5093207;28;45025;-82
2022/09/06 08:29:06;;;;;;;;;7.25;7.00;;;;;-144.76;100.00;60493.00;5109810;27;45169;-82
2022/09/06 08:31:34;;;;;;;;;8.00;7.00;;;;;-144.76;100.00;60493.00;5093338;27;45184;-82
2022/09/06 08:34:00;;;;;;;;;6.00;6.00;;;;;-144.76;100.00;60493.00;5093525;28;45137;-82
2022/09/06 08:36:28;;;;;;;;;5.50;5.00;;;;;-144.76;100.00;60493.00;5109090;27;45164;-82
2022/09/06 08:38:54;;;;;;;;;7.00;6.50;;;;;-144.76;100.00;60493.00;5093606;27;45163;-82
2022/09/06 08:41:29;;;;;;;;;6.75;6.50;;;;;-144.76;100.00;60493.00;5092532;28;46094;-82
2022/09/06 08:43:59;;;;;;;;;4.50;3.75;;;;;-144.76;100.00;60493.00;5093004;27;45707;-82
2022/09/06 08:46:52;;;;;;;;;7.00;6.00;;;;;-144.76;100.00;60493.00;5093265;27;45134;-82
2022/09/06 08:49:18;;;;;;;;;6.50;6.00;;;;;-144.76;100.00;60493.00;5093646;27;44891;-82
2022/09/06 08:52:22;;;;;;;;;5.75;5.75;;;;;-144.76;100.00;60493.00;5093048;27;45578;-82
2022/09/06 08:54:47;;;;;;;;;7.25;6.25;;;;;-144.76;100.00;60493.00;5092187;27;45419;-82
2022/09/06 08:57:35;;;;;;;;;4.67;4.67;;;;;-144.76;100.00;60493.00;5092679;27;45195;-82
2022/09/06 09:00:09;;;;;;;;;4.00;4.00;;;;;-144.76;100.00;60493.00;5093160;27;45126;-82
2022/09/06 09:02:50;;;;;;;;;4.25;4.00;;;;;-144.76;100.00;60493.00;5091188;28;46993;-82
2022/09/06 09:05:24;;;;;;;;;5.00;5.00;;;;;-144.76;100.00;60493.00;5093069;28;45989;-82
2022/09/06 09:08:17;;;;;;;;;6.25;5.50;;;;;-144.76;100.00;60493.00;5093154;27;45179;-81
2022/09/06 09:10:48;;;;;;;;;6.00;5.25;;;;;-144.76;100.00;60493.00;5092145;27;45299;-82
2022/09/06 09:13:28;;;;;;;;;4.00;4.00;;;;;-144.76;100.00;60493.00;5092704;27;45547;-82
2022/09/06 09:15:54;;;;;;;;;4.00;4.00;;;;;-144.76;100.00;60493.00;5092440;28;45500;-82
2022/09/06 09:18:41;;;;;;;;;5.00;4.50;;;;;-144.76;100.00;60493.00;5092802;28;45020;-81
2022/09/06 09:21:08;;;;;;;;;6.75;5.00;;;;;-144.76;100.00;60493.00;5092534;27;44949;-82
2022/09/06 09:23:34;;;;;;;;;4.50;4.50;;;;;-144.76;100.00;60493.00;5107999;27;47393;-82
2022/09/06 09:26:04;;;;;;;;;5.50;4.75;;;;;-144.76;100.00;60493.00;5091583;27;45201;-82
2022/09/06 09:28:30;;;;;;;;;5.00;5.00;;;;;-144.76;100.00;60493.00;5092849;27;44942;-81
2022/09/06 09:30:56;;;;;;;;;4.50;4.50;;;;;-144.76;100.00;60493.00;5092392;27;44960;-81
2022/09/06 09:33:27;;;;;;;;;5.50;5.50;;;;;-144.76;100.00;60493.00;5092615;27;45927;-81
2022/09/06 09:35:55;;;;;;;;;8.50;5.75;;;;;-144.76;100.00;60493.00;5092398;27;45495;-81
2022/09/06 09:38:25;;;;;;;;;0.00;0.00;;;;;-144.76;100.00;60493.00;5092644;27;45064;-81
2022/09/06 09:40:56;;;;;;;;;5.00;5.00;;;;;-144.76;100.00;60493.00;5091678;27;45034;-81
2022/09/06 09:43:25;;;;;;;;;5.25;5.25;;;;;-144.76;100.00;60493.00;5092606;27;45257;-82
2022/09/06 09:46:12;;;;;;;;;7.75;7.50;;;;;-144.76;100.00;60493.00;5091827;28;45156;-81
2022/09/06 09:48:39;;;;;;;;;10.50;9.25;;;;;-144.76;100.00;60493.00;5092613;28;45325;-82
2022/09/06 09:51:24;;;;;;;;;8.50;8.25;;;;;-144.76;100.00;60493.00;5092237;27;44937;-81
2022/09/06 09:54:05;;;;;;;;;7.75;7.00;;;;;-144.76;100.00;60493.00;5092015;27;45139;-81
2022/09/06 09:56:44;;;;;;;;;7.00;7.00;;;;;-144.76;100.00;60493.00;5090476;27;45210;-81
2022/09/06 09:59:41;;;;;;;;;6.75;6.00;;;;;-144.76;100.00;60493.00;5092004;27;44918;-82
2022/09/06 10:02:39;;;;;;;;;5.75;5.75;;;;;-144.76;100.00;60493.00;5091774;27;44928;-82
2022/09/06 10:05:18;;;;;;;;;5.25;5.25;;;;;-144.76;100.00;60493.00;5090687;27;46172;-81
2022/09/06 10:07:50;;;;;;;;;9.00;7.00;;;;;-144.76;100.00;60493.00;5091849;27;45038;-81
2022/09/06 10:10:22;;;;;;;;;7.25;7.25;;;;;-144.76;100.00;60493.00;5091847;27;45214;-82
2022/09/06 10:13:11;;;;;;;;;6.75;6.25;;;;;-144.76;100.00;60493.00;5092275;27;44986;-81
2022/09/06 10:15:39;;;;;;;;;9.00;9.00;;;;;-144.76;100.00;60493.00;5091732;27;45534;-81
2022/09/06 10:18:05;;;;;;;;;7.75;7.00;;;;;-144.76;100.00;60493.00;5091766;28;44990;-81
2022/09/06 10:20:46;;;;;;;;;7.00;6.50;;;;;-144.76;100.00;60493.00;5092334;27;45271;-81
2022/09/06 10:23:32;;;;;;;;;6.75;6.50;;;;;-144.76;100.00;60493.00;5091803;27;45123;-81
2022/09/06 10:26:10;;;;;;;;;6.50;5.75;;;;;-144.76;100.00;60493.00;5091350;27;45633;-81
2022/09/06 10:28:42;;;;;;;;;7.00;6.25;;;;;-144.76;100.00;60493.00;5091910;28;45396;-82
2022/09/06 10:31:29;;;;;;;;;8.00;7.00;;;;;-144.76;100.00;60493.00;5092239;27;45165;-82
2022/09/06 10:33:55;;;;;;;;;6.75;6.25;;;;;-144.76;100.00;60493.00;5092515;28;45207;-81
2022/09/06 10:36:35;;;;;;;;;8.33;7.33;;;;;-144.76;100.00;60493.00;5107012;27;46210;-81
2022/09/06 10:39:34;;;;;;;;;7.00;6.50;;;;;-144.76;100.00;60493.00;5091713;27;45141;-81
2022/09/06 10:42:34;;;;;;;;;6.00;6.00;;;;;-144.76;100.00;60493.00;5089446;27;45021;-82
2022/09/06 10:45:24;;;;;;;;;8.75;8.00;;;;;-144.76;100.00;60493.00;5091177;27;45156;-82
2022/09/06 10:48:01;;;;;;;;;7.00;6.00;;;;;-144.76;100.00;60493.00;5091471;27;45116;-82
2022/09/06 10:50:43;;;;;;;;;6.00;6.00;;;;;-144.76;100.00;60493.00;5106871;27;45534;-82
2022/09/06 10:53:28;;;;;;;;;6.75;6.75;;;;;-144.76;100.00;60493.00;5092045;28;44934;-82
2022/09/06 10:56:26;;;;;;;;;7.25;6.00;;;;;-144.76;100.00;60493.00;5090430;27;45219;-82
2022/09/06 10:59:00;;;;;;;;;5.00;5.00;;;;;-144.76;100.00;60493.00;5089467;27;46084;-82
2022/09/06 11:02:02;;;;;;;;;5.25;5.25;;;;;-144.76;100.00;60493.00;5091361;27;45025;-82
2022/09/06 11:04:38;;;;;;;;;5.75;5.75;;;;;-144.76;100.00;60493.00;5091814;27;44965;-82
2022/09/06 11:07:14;;;;;;;;;5.50;5.25;;;;;-144.76;100.00;60493.00;5092497;27;44929;-82
2022/09/06 11:09:39;;;;;;;;;8.00;7.50;;;;;-144.76;100.00;60493.00;5095065;27;45457;-82
2022/09/06 11:12:23;;;;;;;;;6.00;6.00;;;;;-144.76;100.00;60493.00;5110066;27;45131;-82
2022/09/06 11:14:48;;;;;;;;;5.50;4.75;;;;;-144.76;100.00;60493.00;5095086;28;45242;-82
2022/09/06 11:17:27;;;;;;;;;5.75;5.75;;;;;-144.76;100.00;60493.00;5095007;27;45523;-81